sensor_id;sensor_type;location;lat;lon;timestamp;P1;durP1;ratioP1;P2;durP2;ratioP2
8421;SDS011;4248;48.196;10.924;2023-04-15T00:00:08;8.07;;;3.33;;
8421;SDS011;4248;48.196;10.924;2023-04-15T00:02:34;9.93;;;4.10;;
8421;SDS011;4248;48.196;10.924;2023-04-15T00:05:01;12.80;;;4.00;;
8421;SDS011;4248;48.196;10.924;2023-04-15T00:07:26;6.10;;;3.33;;
8421;SDS011;4248;48.196;10.924;2023-04-15T00:09:53;8.77;;;4.03;;
8421;SDS011;4248;48.196;10.924;2023-04-15T00:12:21;7.97;;;3.57;;
8421;SDS011;4248;48.196;10.924;2023-04-15T00:14:47;8.83;;;4.10;;
8421;SDS011;4248;48.196;10.924;2023-04-15T00:17:14;8.00;;;3.67;;
8421;SDS011;4248;48.196;10.924;2023-04-15T00:19:39;6.43;;;3.40;;
8421;SDS011;4248;48.196;10.924;2023-04-15T00:22:05;13.40;;;3.30;;
8421;SDS011;4248;48.196;10.924;2023-04-15T00:24:32;7.07;;;3.50;;
8421;SDS011;4248;48.196;10.924;2023-04-15T00:26:58;7.80;;;3.40;;
8421;SDS011;4248;48.196;10.924;2023-04-15T00:29:24;6.33;;;3.70;;
8421;SDS011;4248;48.196;10.924;2023-04-15T00:31:50;4.90;;;3.03;;
8421;SDS011;4248;48.196;10.924;2023-04-15T00:34:16;8.60;;;3.50;;
8421;SDS011;4248;48.196;10.924;2023-04-15T00:36:41;5.73;;;3.53;;
8421;SDS011;4248;48.196;10.924;2023-04-15T00:39:07;6.50;;;3.97;;
8421;SDS011;4248;48.196;10.924;2023-04-15T00:41:33;7.30;;;3.73;;
8421;SDS011;4248;48.196;10.924;2023-04-15T00:43:59;9.23;;;3.87;;
8421;SDS011;4248;48.196;10.924;2023-04-15T00:46:27;8.40;;;3.97;;
8421;SDS011;4248;48.196;10.924;2023-04-15T00:48:55;10.03;;;4.07;;
8421;SDS011;4248;48.196;10.924;2023-04-15T00:51:21;13.63;;;4.63;;
8421;SDS011;4248;48.196;10.924;2023-04-15T00:53:47;8.23;;;4.40;;
8421;SDS011;4248;48.196;10.924;2023-04-15T00:56:13;9.70;;;4.10;;
8421;SDS011;4248;48.196;10.924;2023-04-15T00:58:38;11.17;;;4.30;;
8421;SDS011;4248;48.196;10.924;2023-04-15T01:01:04;7.73;;;4.27;;
8421;SDS011;4248;48.196;10.924;2023-04-15T01:03:30;7.77;;;3.77;;
8421;SDS011;4248;48.196;10.924;2023-04-15T01:05:55;9.27;;;4.20;;
8421;SDS011;4248;48.196;10.924;2023-04-15T01:08:27;6.70;;;3.50;;
8421;SDS011;4248;48.196;10.924;2023-04-15T01:10:54;8.63;;;4.17;;
8421;SDS011;4248;48.196;10.924;2023-04-15T01:13:22;8.63;;;3.83;;
8421;SDS011;4248;48.196;10.924;2023-04-15T01:15:49;8.23;;;3.70;;
8421;SDS011;4248;48.196;10.924;2023-04-15T01:18:16;7.13;;;3.40;;
8421;SDS011;4248;48.196;10.924;2023-04-15T01:20:42;6.73;;;3.73;;
8421;SDS011;4248;48.196;10.924;2023-04-15T01:23:08;8.97;;;3.70;;
8421;SDS011;4248;48.196;10.924;2023-04-15T01:25:34;8.13;;;3.40;;
8421;SDS011;4248;48.196;10.924;2023-04-15T01:28:00;7.23;;;3.70;;
8421;SDS011;4248;48.196;10.924;2023-04-15T01:30:26;6.73;;;4.07;;
8421;SDS011;4248;48.196;10.924;2023-04-15T01:32:52;15.37;;;3.70;;
8421;SDS011;4248;48.196;10.924;2023-04-15T01:35:18;6.23;;;3.33;;
8421;SDS011;4248;48.196;10.924;2023-04-15T01:37:44;12.97;;;3.80;;
8421;SDS011;4248;48.196;10.924;2023-04-15T01:40:10;7.60;;;3.60;;
8421;SDS011;4248;48.196;10.924;2023-04-15T01:42:36;7.70;;;4.00;;
8421;SDS011;4248;48.196;10.924;2023-04-15T01:45:02;7.30;;;3.90;;
8421;SDS011;4248;48.196;10.924;2023-04-15T01:47:28;8.10;;;3.70;;
8421;SDS011;4248;48.196;10.924;2023-04-15T01:49:54;8.10;;;3.63;;
8421;SDS011;4248;48.196;10.924;2023-04-15T01:52:20;10.50;;;4.03;;
8421;SDS011;4248;48.196;10.924;2023-04-15T01:54:45;12.40;;;3.63;;
8421;SDS011;4248;48.196;10.924;2023-04-15T01:57:11;9.10;;;3.70;;
8421;SDS011;4248;48.196;10.924;2023-04-15T01:59:37;9.50;;;3.47;;
8421;SDS011;4248;48.196;10.924;2023-04-15T02:02:03;6.67;;;3.50;;
8421;SDS011;4248;48.196;10.924;2023-04-15T02:04:29;9.20;;;3.97;;
8421;SDS011;4248;48.196;10.924;2023-04-15T02:06:54;8.33;;;3.77;;
8421;SDS011;4248;48.196;10.924;2023-04-15T02:09:20;9.50;;;4.20;;
8421;SDS011;4248;48.196;10.924;2023-04-15T02:11:46;6.53;;;3.37;;
8421;SDS011;4248;48.196;10.924;2023-04-15T02:14:12;6.70;;;2.93;;
8421;SDS011;4248;48.196;10.924;2023-04-15T02:16:38;9.20;;;3.70;;
8421;SDS011;4248;48.196;10.924;2023-04-15T02:19:04;8.67;;;3.63;;
8421;SDS011;4248;48.196;10.924;2023-04-15T02:21:30;13.97;;;3.13;;
8421;SDS011;4248;48.196;10.924;2023-04-15T02:23:55;10.43;;;3.47;;
8421;SDS011;4248;48.196;10.924;2023-04-15T02:26:21;7.50;;;3.77;;
8421;SDS011;4248;48.196;10.924;2023-04-15T02:28:47;7.30;;;3.73;;
8421;SDS011;4248;48.196;10.924;2023-04-15T02:31:15;14.53;;;3.50;;
8421;SDS011;4248;48.196;10.924;2023-04-15T02:33:41;10.60;;;3.00;;
8421;SDS011;4248;48.196;10.924;2023-04-15T02:36:07;6.67;;;3.90;;
8421;SDS011;4248;48.196;10.924;2023-04-15T02:38:34;5.80;;;3.33;;
8421;SDS011;4248;48.196;10.924;2023-04-15T02:40:59;5.40;;;3.07;;
8421;SDS011;4248;48.196;10.924;2023-04-15T02:43:25;8.57;;;2.90;;
8421;SDS011;4248;48.196;10.924;2023-04-15T02:45:51;5.20;;;2.63;;
8421;SDS011;4248;48.196;10.924;2023-04-15T02:48:17;9.03;;;3.00;;
8421;SDS011;4248;48.196;10.924;2023-04-15T02:50:44;7.20;;;3.13;;
8421;SDS011;4248;48.196;10.924;2023-04-15T02:53:10;7.33;;;3.00;;
8421;SDS011;4248;48.196;10.924;2023-04-15T02:55:37;7.30;;;2.73;;
8421;SDS011;4248;48.196;10.924;2023-04-15T02:58:03;7.57;;;3.03;;
8421;SDS011;4248;48.196;10.924;2023-04-15T03:00:28;5.60;;;2.80;;
8421;SDS011;4248;48.196;10.924;2023-04-15T03:03:04;5.90;;;2.90;;
8421;SDS011;4248;48.196;10.924;2023-04-15T03:05:30;7.63;;;3.53;;
8421;SDS011;4248;48.196;10.924;2023-04-15T03:07:56;6.63;;;3.20;;
8421;SDS011;4248;48.196;10.924;2023-04-15T03:10:22;6.40;;;2.63;;
8421;SDS011;4248;48.196;10.924;2023-04-15T03:12:47;9.13;;;3.00;;
8421;SDS011;4248;48.196;10.924;2023-04-15T03:15:13;6.60;;;2.40;;
8421;SDS011;4248;48.196;10.924;2023-04-15T03:17:39;6.30;;;2.80;;
8421;SDS011;4248;48.196;10.924;2023-04-15T03:20:05;5.50;;;2.70;;
8421;SDS011;4248;48.196;10.924;2023-04-15T03:22:31;8.40;;;3.47;;
8421;SDS011;4248;48.196;10.924;2023-04-15T03:24:57;8.17;;;2.63;;
8421;SDS011;4248;48.196;10.924;2023-04-15T03:27:23;5.30;;;2.60;;
8421;SDS011;4248;48.196;10.924;2023-04-15T03:29:49;8.47;;;3.27;;
8421;SDS011;4248;48.196;10.924;2023-04-15T03:32:16;4.17;;;2.50;;
8421;SDS011;4248;48.196;10.924;2023-04-15T03:34:42;29.50;;;12.97;;
8421;SDS011;4248;48.196;10.924;2023-04-15T03:37:08;26.00;;;11.90;;
8421;SDS011;4248;48.196;10.924;2023-04-15T03:39:33;42.53;;;19.93;;
8421;SDS011;4248;48.196;10.924;2023-04-15T03:41:59;23.10;;;10.93;;
8421;SDS011;4248;48.196;10.924;2023-04-15T03:44:26;20.50;;;7.30;;
8421;SDS011;4248;48.196;10.924;2023-04-15T03:46:51;15.33;;;7.20;;
8421;SDS011;4248;48.196;10.924;2023-04-15T03:49:17;23.10;;;11.80;;
8421;SDS011;4248;48.196;10.924;2023-04-15T03:51:43;11.73;;;7.50;;
8421;SDS011;4248;48.196;10.924;2023-04-15T03:54:09;11.70;;;5.83;;
8421;SDS011;4248;48.196;10.924;2023-04-15T03:56:35;10.10;;;4.40;;
8421;SDS011;4248;48.196;10.924;2023-04-15T03:59:01;5.37;;;3.33;;
8421;SDS011;4248;48.196;10.924;2023-04-15T04:01:27;7.67;;;2.80;;
8421;SDS011;4248;48.196;10.924;2023-04-15T04:03:52;5.67;;;2.57;;
8421;SDS011;4248;48.196;10.924;2023-04-15T04:06:18;4.47;;;2.90;;
8421;SDS011;4248;48.196;10.924;2023-04-15T04:08:44;6.50;;;3.90;;
8421;SDS011;4248;48.196;10.924;2023-04-15T04:11:10;7.77;;;2.90;;
8421;SDS011;4248;48.196;10.924;2023-04-15T04:13:35;8.13;;;2.90;;
8421;SDS011;4248;48.196;10.924;2023-04-15T04:16:01;8.07;;;3.10;;
8421;SDS011;4248;48.196;10.924;2023-04-15T04:18:28;5.53;;;2.70;;
8421;SDS011;4248;48.196;10.924;2023-04-15T04:20:55;7.67;;;2.20;;
8421;SDS011;4248;48.196;10.924;2023-04-15T04:23:20;7.20;;;2.80;;
8421;SDS011;4248;48.196;10.924;2023-04-15T04:25:46;7.87;;;2.57;;
8421;SDS011;4248;48.196;10.924;2023-04-15T04:28:12;14.40;;;2.70;;
8421;SDS011;4248;48.196;10.924;2023-04-15T04:30:37;5.00;;;2.53;;
8421;SDS011;4248;48.196;10.924;2023-04-15T04:33:03;9.20;;;3.17;;
8421;SDS011;4248;48.196;10.924;2023-04-15T04:35:29;5.23;;;2.47;;
8421;SDS011;4248;48.196;10.924;2023-04-15T04:37:54;5.43;;;2.70;;
8421;SDS011;4248;48.196;10.924;2023-04-15T04:40:20;6.07;;;2.50;;
8421;SDS011;4248;48.196;10.924;2023-04-15T04:42:46;10.87;;;2.30;;
8421;SDS011;4248;48.196;10.924;2023-04-15T04:45:11;8.80;;;2.67;;
8421;SDS011;4248;48.196;10.924;2023-04-15T04:47:37;7.03;;;2.30;;
8421;SDS011;4248;48.196;10.924;2023-04-15T04:50:03;7.40;;;2.47;;
8421;SDS011;4248;48.196;10.924;2023-04-15T04:52:28;6.80;;;2.60;;
8421;SDS011;4248;48.196;10.924;2023-04-15T04:54:54;5.93;;;2.20;;
8421;SDS011;4248;48.196;10.924;2023-04-15T04:57:20;3.23;;;2.20;;
8421;SDS011;4248;48.196;10.924;2023-04-15T04:59:45;4.87;;;2.50;;
8421;SDS011;4248;48.196;10.924;2023-04-15T05:02:11;5.40;;;2.40;;
8421;SDS011;4248;48.196;10.924;2023-04-15T05:04:37;5.37;;;1.80;;
8421;SDS011;4248;48.196;10.924;2023-04-15T05:07:02;3.97;;;2.13;;
8421;SDS011;4248;48.196;10.924;2023-04-15T05:09:28;5.53;;;2.20;;
8421;SDS011;4248;48.196;10.924;2023-04-15T05:11:56;6.80;;;2.20;;
8421;SDS011;4248;48.196;10.924;2023-04-15T05:14:21;4.03;;;2.43;;
8421;SDS011;4248;48.196;10.924;2023-04-15T05:16:47;3.40;;;1.80;;
8421;SDS011;4248;48.196;10.924;2023-04-15T05:19:13;5.53;;;2.30;;
8421;SDS011;4248;48.196;10.924;2023-04-15T05:21:38;4.10;;;2.10;;
8421;SDS011;4248;48.196;10.924;2023-04-15T05:24:04;5.47;;;2.10;;
8421;SDS011;4248;48.196;10.924;2023-04-15T05:26:30;5.17;;;1.87;;
8421;SDS011;4248;48.196;10.924;2023-04-15T05:28:55;2.43;;;1.53;;
8421;SDS011;4248;48.196;10.924;2023-04-15T05:31:21;3.37;;;1.67;;
8421;SDS011;4248;48.196;10.924;2023-04-15T05:33:47;5.73;;;2.07;;
8421;SDS011;4248;48.196;10.924;2023-04-15T05:36:12;3.80;;;1.70;;
8421;SDS011;4248;48.196;10.924;2023-04-15T05:38:38;3.97;;;1.70;;
8421;SDS011;4248;48.196;10.924;2023-04-15T05:41:03;5.23;;;2.07;;
8421;SDS011;4248;48.196;10.924;2023-04-15T05:43:29;7.93;;;2.20;;
8421;SDS011;4248;48.196;10.924;2023-04-15T05:46:05;3.93;;;1.77;;
8421;SDS011;4248;48.196;10.924;2023-04-15T05:48:34;4.67;;;1.83;;
8421;SDS011;4248;48.196;10.924;2023-04-15T05:51:00;4.17;;;2.00;;
8421;SDS011;4248;48.196;10.924;2023-04-15T05:53:26;5.63;;;1.80;;
8421;SDS011;4248;48.196;10.924;2023-04-15T05:55:52;4.93;;;2.10;;
8421;SDS011;4248;48.196;10.924;2023-04-15T05:58:31;9.07;;;1.83;;
8421;SDS011;4248;48.196;10.924;2023-04-15T06:01:15;4.60;;;1.83;;
8421;SDS011;4248;48.196;10.924;2023-04-15T06:03:42;4.40;;;1.93;;
8421;SDS011;4248;48.196;10.924;2023-04-15T06:06:07;4.50;;;1.67;;
8421;SDS011;4248;48.196;10.924;2023-04-15T06:08:33;3.53;;;1.83;;
8421;SDS011;4248;48.196;10.924;2023-04-15T06:10:59;4.70;;;1.90;;
8421;SDS011;4248;48.196;10.924;2023-04-15T06:13:25;4.17;;;1.50;;
8421;SDS011;4248;48.196;10.924;2023-04-15T06:15:51;3.90;;;1.50;;
8421;SDS011;4248;48.196;10.924;2023-04-15T06:18:17;5.23;;;1.90;;
8421;SDS011;4248;48.196;10.924;2023-04-15T06:20:43;5.00;;;1.70;;
8421;SDS011;4248;48.196;10.924;2023-04-15T06:23:09;3.30;;;1.63;;
8421;SDS011;4248;48.196;10.924;2023-04-15T06:25:35;3.03;;;1.60;;
8421;SDS011;4248;48.196;10.924;2023-04-15T06:28:00;4.33;;;1.57;;
8421;SDS011;4248;48.196;10.924;2023-04-15T06:30:26;4.20;;;1.57;;
8421;SDS011;4248;48.196;10.924;2023-04-15T06:32:52;2.70;;;1.53;;
8421;SDS011;4248;48.196;10.924;2023-04-15T06:35:18;4.27;;;1.90;;
8421;SDS011;4248;48.196;10.924;2023-04-15T06:37:44;3.40;;;1.63;;
8421;SDS011;4248;48.196;10.924;2023-04-15T06:40:10;3.63;;;1.40;;
8421;SDS011;4248;48.196;10.924;2023-04-15T06:42:36;4.73;;;1.60;;
8421;SDS011;4248;48.196;10.924;2023-04-15T06:45:02;5.60;;;2.10;;
8421;SDS011;4248;48.196;10.924;2023-04-15T06:47:28;4.37;;;1.53;;
8421;SDS011;4248;48.196;10.924;2023-04-15T06:49:53;6.80;;;2.10;;
8421;SDS011;4248;48.196;10.924;2023-04-15T06:52:19;3.40;;;1.70;;
8421;SDS011;4248;48.196;10.924;2023-04-15T06:54:45;2.47;;;1.37;;
8421;SDS011;4248;48.196;10.924;2023-04-15T06:57:12;2.90;;;1.47;;
8421;SDS011;4248;48.196;10.924;2023-04-15T06:59:38;5.50;;;1.70;;
8421;SDS011;4248;48.196;10.924;2023-04-15T07:02:03;2.77;;;1.33;;
8421;SDS011;4248;48.196;10.924;2023-04-15T07:04:29;2.73;;;1.30;;
8421;SDS011;4248;48.196;10.924;2023-04-15T07:06:54;4.50;;;1.43;;
8421;SDS011;4248;48.196;10.924;2023-04-15T07:09:21;3.87;;;1.30;;
8421;SDS011;4248;48.196;10.924;2023-04-15T07:11:47;9.97;;;1.70;;
8421;SDS011;4248;48.196;10.924;2023-04-15T07:14:13;4.90;;;1.70;;
8421;SDS011;4248;48.196;10.924;2023-04-15T07:16:39;6.80;;;1.40;;
8421;SDS011;4248;48.196;10.924;2023-04-15T07:19:04;2.07;;;1.20;;
8421;SDS011;4248;48.196;10.924;2023-04-15T07:21:30;3.67;;;1.50;;
8421;SDS011;4248;48.196;10.924;2023-04-15T07:23:56;3.93;;;1.57;;
8421;SDS011;4248;48.196;10.924;2023-04-15T07:26:22;3.30;;;1.53;;
8421;SDS011;4248;48.196;10.924;2023-04-15T07:28:48;7.57;;;1.83;;
8421;SDS011;4248;48.196;10.924;2023-04-15T07:31:14;3.63;;;1.40;;
8421;SDS011;4248;48.196;10.924;2023-04-15T07:33:40;3.60;;;1.60;;
8421;SDS011;4248;48.196;10.924;2023-04-15T07:36:06;5.77;;;2.10;;
8421;SDS011;4248;48.196;10.924;2023-04-15T07:38:32;3.70;;;1.40;;
8421;SDS011;4248;48.196;10.924;2023-04-15T07:40:57;4.90;;;1.30;;
8421;SDS011;4248;48.196;10.924;2023-04-15T07:43:23;3.60;;;1.53;;
8421;SDS011;4248;48.196;10.924;2023-04-15T07:45:49;4.10;;;1.50;;
8421;SDS011;4248;48.196;10.924;2023-04-15T07:48:14;5.10;;;1.67;;
8421;SDS011;4248;48.196;10.924;2023-04-15T07:50:40;5.00;;;1.87;;
8421;SDS011;4248;48.196;10.924;2023-04-15T07:53:06;4.97;;;1.50;;
8421;SDS011;4248;48.196;10.924;2023-04-15T07:55:32;6.90;;;2.20;;
8421;SDS011;4248;48.196;10.924;2023-04-15T07:57:58;4.87;;;1.60;;
8421;SDS011;4248;48.196;10.924;2023-04-15T08:00:23;8.27;;;1.90;;
8421;SDS011;4248;48.196;10.924;2023-04-15T08:02:50;5.33;;;1.63;;
8421;SDS011;4248;48.196;10.924;2023-04-15T08:05:17;5.80;;;1.77;;
8421;SDS011;4248;48.196;10.924;2023-04-15T08:07:44;5.10;;;1.80;;
8421;SDS011;4248;48.196;10.924;2023-04-15T08:10:10;5.37;;;1.90;;
8421;SDS011;4248;48.196;10.924;2023-04-15T08:12:36;3.80;;;1.70;;
8421;SDS011;4248;48.196;10.924;2023-04-15T08:15:02;5.43;;;1.60;;
8421;SDS011;4248;48.196;10.924;2023-04-15T08:17:28;4.77;;;1.70;;
8421;SDS011;4248;48.196;10.924;2023-04-15T08:19:54;6.23;;;1.63;;
8421;SDS011;4248;48.196;10.924;2023-04-15T08:22:20;4.83;;;1.83;;
8421;SDS011;4248;48.196;10.924;2023-04-15T08:24:45;3.30;;;1.87;;
8421;SDS011;4248;48.196;10.924;2023-04-15T08:27:11;5.23;;;1.70;;
8421;SDS011;4248;48.196;10.924;2023-04-15T08:29:36;5.83;;;2.23;;
8421;SDS011;4248;48.196;10.924;2023-04-15T08:32:02;5.97;;;1.97;;
8421;SDS011;4248;48.196;10.924;2023-04-15T08:34:28;4.27;;;1.80;;
8421;SDS011;4248;48.196;10.924;2023-04-15T08:36:55;5.43;;;1.70;;
8421;SDS011;4248;48.196;10.924;2023-04-15T08:39:20;4.27;;;1.50;;
8421;SDS011;4248;48.196;10.924;2023-04-15T08:41:47;7.87;;;2.27;;
8421;SDS011;4248;48.196;10.924;2023-04-15T08:44:22;5.87;;;1.60;;
8421;SDS011;4248;48.196;10.924;2023-04-15T08:46:49;6.70;;;2.00;;
8421;SDS011;4248;48.196;10.924;2023-04-15T08:49:16;6.83;;;1.93;;
8421;SDS011;4248;48.196;10.924;2023-04-15T08:51:43;6.33;;;1.90;;
8421;SDS011;4248;48.196;10.924;2023-04-15T08:54:09;7.67;;;2.00;;
8421;SDS011;4248;48.196;10.924;2023-04-15T08:56:35;4.10;;;2.00;;
8421;SDS011;4248;48.196;10.924;2023-04-15T08:59:01;7.90;;;2.33;;
8421;SDS011;4248;48.196;10.924;2023-04-15T09:01:27;4.70;;;1.90;;
8421;SDS011;4248;48.196;10.924;2023-04-15T09:03:53;5.07;;;2.13;;
8421;SDS011;4248;48.196;10.924;2023-04-15T09:06:21;9.00;;;1.80;;
8421;SDS011;4248;48.196;10.924;2023-04-15T09:08:47;11.37;;;2.53;;
8421;SDS011;4248;48.196;10.924;2023-04-15T09:11:14;6.97;;;1.97;;
8421;SDS011;4248;48.196;10.924;2023-04-15T09:13:41;4.50;;;1.77;;
8421;SDS011;4248;48.196;10.924;2023-04-15T09:16:07;5.87;;;2.80;;
8421;SDS011;4248;48.196;10.924;2023-04-15T09:18:33;4.77;;;1.80;;
8421;SDS011;4248;48.196;10.924;2023-04-15T09:21:12;4.43;;;1.90;;
8421;SDS011;4248;48.196;10.924;2023-04-15T09:23:40;4.93;;;1.93;;
8421;SDS011;4248;48.196;10.924;2023-04-15T09:26:35;9.17;;;2.40;;
8421;SDS011;4248;48.196;10.924;2023-04-15T09:29:05;5.53;;;2.33;;
8421;SDS011;4248;48.196;10.924;2023-04-15T09:31:37;5.47;;;1.90;;
8421;SDS011;4248;48.196;10.924;2023-04-15T09:34:03;3.97;;;2.60;;
8421;SDS011;4248;48.196;10.924;2023-04-15T09:36:35;4.50;;;1.90;;
8421;SDS011;4248;48.196;10.924;2023-04-15T09:39:16;3.70;;;1.77;;
8421;SDS011;4248;48.196;10.924;2023-04-15T09:41:42;6.40;;;2.57;;
8421;SDS011;4248;48.196;10.924;2023-04-15T09:44:24;4.10;;;2.47;;
8421;SDS011;4248;48.196;10.924;2023-04-15T09:46:50;5.43;;;2.50;;
8421;SDS011;4248;48.196;10.924;2023-04-15T09:49:16;6.90;;;2.47;;
8421;SDS011;4248;48.196;10.924;2023-04-15T09:51:42;6.00;;;2.33;;
8421;SDS011;4248;48.196;10.924;2023-04-15T09:54:08;5.57;;;2.37;;
8421;SDS011;4248;48.196;10.924;2023-04-15T09:56:37;5.07;;;2.70;;
8421;SDS011;4248;48.196;10.924;2023-04-15T09:59:06;5.13;;;2.27;;
8421;SDS011;4248;48.196;10.924;2023-04-15T10:01:32;4.90;;;3.10;;
8421;SDS011;4248;48.196;10.924;2023-04-15T10:03:58;7.53;;;2.27;;
8421;SDS011;4248;48.196;10.924;2023-04-15T10:06:27;3.70;;;2.10;;
8421;SDS011;4248;48.196;10.924;2023-04-15T10:08:54;9.20;;;3.10;;
8421;SDS011;4248;48.196;10.924;2023-04-15T10:11:21;5.30;;;2.97;;
8421;SDS011;4248;48.196;10.924;2023-04-15T10:13:48;6.40;;;2.80;;
8421;SDS011;4248;48.196;10.924;2023-04-15T10:16:15;5.33;;;2.10;;
8421;SDS011;4248;48.196;10.924;2023-04-15T10:18:44;6.90;;;2.70;;
8421;SDS011;4248;48.196;10.924;2023-04-15T10:21:11;6.77;;;3.10;;
8421;SDS011;4248;48.196;10.924;2023-04-15T10:23:42;17.93;;;3.30;;
8421;SDS011;4248;48.196;10.924;2023-04-15T10:26:10;7.10;;;2.80;;
8421;SDS011;4248;48.196;10.924;2023-04-15T10:28:37;6.63;;;2.93;;
8421;SDS011;4248;48.196;10.924;2023-04-15T10:31:02;7.20;;;3.23;;
8421;SDS011;4248;48.196;10.924;2023-04-15T10:33:29;6.03;;;3.27;;
8421;SDS011;4248;48.196;10.924;2023-04-15T10:35:55;8.60;;;3.63;;
8421;SDS011;4248;48.196;10.924;2023-04-15T10:43:54;8.20;;;3.73;;
8421;SDS011;4248;48.196;10.924;2023-04-15T10:46:28;5.87;;;3.00;;
8421;SDS011;4248;48.196;10.924;2023-04-15T10:49:09;7.50;;;3.30;;
8421;SDS011;4248;48.196;10.924;2023-04-15T10:51:37;11.17;;;3.60;;
8421;SDS011;4248;48.196;10.924;2023-04-15T10:54:15;5.83;;;2.90;;
8421;SDS011;4248;48.196;10.924;2023-04-15T10:59:29;8.80;;;3.50;;
8421;SDS011;4248;48.196;10.924;2023-04-15T11:02:14;12.50;;;3.30;;
8421;SDS011;4248;48.196;10.924;2023-04-15T11:04:53;7.93;;;2.90;;
8421;SDS011;4248;48.196;10.924;2023-04-15T11:07:34;7.27;;;3.23;;
8421;SDS011;4248;48.196;10.924;2023-04-15T11:10:00;3.70;;;2.30;;
8421;SDS011;4248;48.196;10.924;2023-04-15T11:12:33;7.33;;;3.10;;
8421;SDS011;4248;48.196;10.924;2023-04-15T11:15:22;4.30;;;2.60;;
8421;SDS011;4248;48.196;10.924;2023-04-15T11:17:51;8.30;;;2.80;;
8421;SDS011;4248;48.196;10.924;2023-04-15T11:20:17;8.03;;;3.13;;
8421;SDS011;4248;48.196;10.924;2023-04-15T11:22:46;4.83;;;2.70;;
8421;SDS011;4248;48.196;10.924;2023-04-15T11:25:22;12.20;;;3.60;;
8421;SDS011;4248;48.196;10.924;2023-04-15T11:27:52;8.70;;;3.40;;
8421;SDS011;4248;48.196;10.924;2023-04-15T11:30:25;8.07;;;3.37;;
8421;SDS011;4248;48.196;10.924;2023-04-15T11:33:00;9.90;;;3.20;;
8421;SDS011;4248;48.196;10.924;2023-04-15T11:35:27;8.77;;;3.90;;
8421;SDS011;4248;48.196;10.924;2023-04-15T11:37:54;5.03;;;2.93;;
8421;SDS011;4248;48.196;10.924;2023-04-15T11:40:27;7.13;;;3.40;;
8421;SDS011;4248;48.196;10.924;2023-04-15T11:45:57;4.87;;;2.50;;
8421;SDS011;4248;48.196;10.924;2023-04-15T11:48:28;7.53;;;3.40;;
8421;SDS011;4248;48.196;10.924;2023-04-15T11:56:19;6.30;;;3.10;;
8421;SDS011;4248;48.196;10.924;2023-04-15T11:58:47;7.50;;;3.60;;
8421;SDS011;4248;48.196;10.924;2023-04-15T12:01:15;5.57;;;3.30;;
8421;SDS011;4248;48.196;10.924;2023-04-15T12:03:42;9.30;;;3.10;;
8421;SDS011;4248;48.196;10.924;2023-04-15T12:11:20;7.73;;;3.90;;
8421;SDS011;4248;48.196;10.924;2023-04-15T12:13:55;13.33;;;3.70;;
8421;SDS011;4248;48.196;10.924;2023-04-15T12:16:21;5.03;;;2.70;;
8421;SDS011;4248;48.196;10.924;2023-04-15T12:18:55;7.90;;;3.17;;
8421;SDS011;4248;48.196;10.924;2023-04-15T12:21:23;10.33;;;3.53;;
8421;SDS011;4248;48.196;10.924;2023-04-15T12:23:50;6.77;;;3.50;;
8421;SDS011;4248;48.196;10.924;2023-04-15T12:26:17;8.23;;;3.80;;
8421;SDS011;4248;48.196;10.924;2023-04-15T12:28:52;12.97;;;4.60;;
8421;SDS011;4248;48.196;10.924;2023-04-15T12:31:54;4.97;;;2.17;;
8421;SDS011;4248;48.196;10.924;2023-04-15T12:34:30;5.77;;;2.20;;
8421;SDS011;4248;48.196;10.924;2023-04-15T12:36:58;6.80;;;2.23;;
8421;SDS011;4248;48.196;10.924;2023-04-15T12:39:26;8.43;;;2.50;;
8421;SDS011;4248;48.196;10.924;2023-04-15T12:41:53;4.60;;;2.07;;
8421;SDS011;4248;48.196;10.924;2023-04-15T12:44:21;5.50;;;2.40;;
8421;SDS011;4248;48.196;10.924;2023-04-15T12:46:47;3.53;;;1.53;;
8421;SDS011;4248;48.196;10.924;2023-04-15T12:49:14;5.07;;;2.20;;
8421;SDS011;4248;48.196;10.924;2023-04-15T12:51:40;5.97;;;2.00;;
8421;SDS011;4248;48.196;10.924;2023-04-15T12:54:06;5.60;;;2.30;;
8421;SDS011;4248;48.196;10.924;2023-04-15T12:56:32;4.97;;;2.93;;
8421;SDS011;4248;48.196;10.924;2023-04-15T12:58:58;3.80;;;1.83;;
8421;SDS011;4248;48.196;10.924;2023-04-15T13:01:23;6.63;;;2.10;;
8421;SDS011;4248;48.196;10.924;2023-04-15T13:03:49;7.10;;;2.40;;
8421;SDS011;4248;48.196;10.924;2023-04-15T13:06:15;4.90;;;2.80;;
8421;SDS011;4248;48.196;10.924;2023-04-15T13:08:41;7.67;;;3.00;;
8421;SDS011;4248;48.196;10.924;2023-04-15T13:11:07;6.90;;;2.80;;
8421;SDS011;4248;48.196;10.924;2023-04-15T13:13:33;5.57;;;2.47;;
8421;SDS011;4248;48.196;10.924;2023-04-15T13:15:58;7.13;;;3.20;;
8421;SDS011;4248;48.196;10.924;2023-04-15T13:18:24;5.07;;;2.30;;
8421;SDS011;4248;48.196;10.924;2023-04-15T13:20:50;10.27;;;2.87;;
8421;SDS011;4248;48.196;10.924;2023-04-15T13:23:16;5.27;;;2.50;;
8421;SDS011;4248;48.196;10.924;2023-04-15T13:25:41;4.87;;;2.70;;
8421;SDS011;4248;48.196;10.924;2023-04-15T13:28:07;3.87;;;2.13;;
8421;SDS011;4248;48.196;10.924;2023-04-15T13:30:36;6.17;;;2.40;;
8421;SDS011;4248;48.196;10.924;2023-04-15T13:33:02;4.33;;;2.37;;
8421;SDS011;4248;48.196;10.924;2023-04-15T13:35:27;9.00;;;3.00;;
8421;SDS011;4248;48.196;10.924;2023-04-15T13:37:53;4.40;;;2.73;;
8421;SDS011;4248;48.196;10.924;2023-04-15T13:40:19;10.70;;;2.80;;
8421;SDS011;4248;48.196;10.924;2023-04-15T13:42:45;4.67;;;2.50;;
8421;SDS011;4248;48.196;10.924;2023-04-15T13:45:11;5.67;;;2.43;;
8421;SDS011;4248;48.196;10.924;2023-04-15T13:47:36;6.23;;;2.70;;
8421;SDS011;4248;48.196;10.924;2023-04-15T13:50:02;5.03;;;2.30;;
8421;SDS011;4248;48.196;10.924;2023-04-15T13:52:28;4.67;;;2.60;;
8421;SDS011;4248;48.196;10.924;2023-04-15T13:54:54;5.80;;;2.57;;
8421;SDS011;4248;48.196;10.924;2023-04-15T13:57:19;8.60;;;2.43;;
8421;SDS011;4248;48.196;10.924;2023-04-15T13:59:45;6.27;;;2.30;;
8421;SDS011;4248;48.196;10.924;2023-04-15T14:02:10;7.03;;;2.77;;
8421;SDS011;4248;48.196;10.924;2023-04-15T14:04:36;6.77;;;2.10;;
8421;SDS011;4248;48.196;10.924;2023-04-15T14:07:02;6.10;;;2.10;;
8421;SDS011;4248;48.196;10.924;2023-04-15T14:09:28;5.10;;;2.20;;
8421;SDS011;4248;48.196;10.924;2023-04-15T14:11:53;5.27;;;2.33;;
8421;SDS011;4248;48.196;10.924;2023-04-15T14:14:20;6.10;;;2.80;;
8421;SDS011;4248;48.196;10.924;2023-04-15T14:16:45;5.87;;;2.67;;
8421;SDS011;4248;48.196;10.924;2023-04-15T14:19:12;9.10;;;3.90;;
8421;SDS011;4248;48.196;10.924;2023-04-15T14:21:38;4.10;;;2.30;;
8421;SDS011;4248;48.196;10.924;2023-04-15T14:24:04;12.20;;;4.13;;
8421;SDS011;4248;48.196;10.924;2023-04-15T14:26:30;8.17;;;2.80;;
8421;SDS011;4248;48.196;10.924;2023-04-15T14:28:56;13.73;;;7.87;;
8421;SDS011;4248;48.196;10.924;2023-04-15T14:31:21;12.53;;;7.23;;
8421;SDS011;4248;48.196;10.924;2023-04-15T14:33:47;10.17;;;5.70;;
8421;SDS011;4248;48.196;10.924;2023-04-15T14:36:12;10.13;;;4.77;;
8421;SDS011;4248;48.196;10.924;2023-04-15T14:38:38;5.30;;;2.87;;
8421;SDS011;4248;48.196;10.924;2023-04-15T14:41:04;7.07;;;3.13;;
8421;SDS011;4248;48.196;10.924;2023-04-15T14:43:30;9.57;;;3.50;;
8421;SDS011;4248;48.196;10.924;2023-04-15T14:45:56;3.97;;;2.00;;
8421;SDS011;4248;48.196;10.924;2023-04-15T14:48:21;8.30;;;3.97;;
8421;SDS011;4248;48.196;10.924;2023-04-15T14:50:47;6.40;;;2.50;;
8421;SDS011;4248;48.196;10.924;2023-04-15T14:53:13;13.20;;;5.20;;
8421;SDS011;4248;48.196;10.924;2023-04-15T14:55:38;5.70;;;3.30;;
8421;SDS011;4248;48.196;10.924;2023-04-15T14:58:05;7.07;;;2.60;;
8421;SDS011;4248;48.196;10.924;2023-04-15T15:00:33;7.77;;;3.30;;
8421;SDS011;4248;48.196;10.924;2023-04-15T15:02:59;3.80;;;2.13;;
8421;SDS011;4248;48.196;10.924;2023-04-15T15:05:25;7.90;;;2.30;;
8421;SDS011;4248;48.196;10.924;2023-04-15T15:07:51;4.43;;;2.43;;
8421;SDS011;4248;48.196;10.924;2023-04-15T15:10:16;6.83;;;2.30;;
8421;SDS011;4248;48.196;10.924;2023-04-15T15:12:42;4.40;;;2.47;;
8421;SDS011;4248;48.196;10.924;2023-04-15T15:15:08;4.33;;;2.70;;
8421;SDS011;4248;48.196;10.924;2023-04-15T15:17:34;5.83;;;3.57;;
8421;SDS011;4248;48.196;10.924;2023-04-15T15:20:00;11.23;;;4.50;;